sensor_id;sensor_type;location;lat;lon;timestamp;P1;durP1;ratioP1;P2;durP2;ratioP2
9789;SDS011;4934;50.852;8.098;2023-05-10T00:01:07;2.85;;;0.50;;
9789;SDS011;4934;50.852;8.098;2023-05-10T00:03:33;1.75;;;0.65;;
9789;SDS011;4934;50.852;8.098;2023-05-10T00:05:58;1.20;;;0.50;;
9789;SDS011;4934;50.852;8.098;2023-05-10T00:08:24;0.82;;;0.60;;
9789;SDS011;4934;50.852;8.098;2023-05-10T00:10:49;0.60;;;0.45;;
9789;SDS011;4934;50.852;8.098;2023-05-10T00:13:15;2.83;;;0.47;;
9789;SDS011;4934;50.852;8.098;2023-05-10T00:15:41;1.38;;;0.50;;
9789;SDS011;4934;50.852;8.098;2023-05-10T00:18:06;1.05;;;0.38;;
9789;SDS011;4934;50.852;8.098;2023-05-10T00:20:32;0.77;;;0.50;;
9789;SDS011;4934;50.852;8.098;2023-05-10T00:22:57;0.80;;;0.52;;
9789;SDS011;4934;50.852;8.098;2023-05-10T00:25:23;1.25;;;0.75;;
9789;SDS011;4934;50.852;8.098;2023-05-10T00:27:49;1.23;;;0.40;;
9789;SDS011;4934;50.852;8.098;2023-05-10T00:30:14;0.40;;;0.40;;
9789;SDS011;4934;50.852;8.098;2023-05-10T00:32:40;0.82;;;0.70;;
9789;SDS011;4934;50.852;8.098;2023-05-10T00:35:06;0.75;;;0.65;;
9789;SDS011;4934;50.852;8.098;2023-05-10T00:37:31;0.85;;;0.57;;
9789;SDS011;4934;50.852;8.098;2023-05-10T00:39:57;2.58;;;0.40;;
9789;SDS011;4934;50.852;8.098;2023-05-10T00:42:23;2.53;;;0.50;;
9789;SDS011;4934;50.852;8.098;2023-05-10T00:44:48;1.08;;;0.50;;
9789;SDS011;4934;50.852;8.098;2023-05-10T00:47:14;0.50;;;0.40;;
9789;SDS011;4934;50.852;8.098;2023-05-10T00:49:40;0.55;;;0.50;;
9789;SDS011;4934;50.852;8.098;2023-05-10T00:52:06;0.38;;;0.38;;
9789;SDS011;4934;50.852;8.098;2023-05-10T00:54:32;0.70;;;0.60;;
9789;SDS011;4934;50.852;8.098;2023-05-10T00:56:58;1.20;;;0.60;;
9789;SDS011;4934;50.852;8.098;2023-05-10T00:59:24;0.70;;;0.63;;
9789;SDS011;4934;50.852;8.098;2023-05-10T01:01:50;0.63;;;0.50;;
9789;SDS011;4934;50.852;8.098;2023-05-10T01:04:16;1.20;;;0.77;;
9789;SDS011;4934;50.852;8.098;2023-05-10T01:06:42;3.10;;;0.93;;
9789;SDS011;4934;50.852;8.098;2023-05-10T01:09:08;1.23;;;0.68;;
9789;SDS011;4934;50.852;8.098;2023-05-10T01:11:34;0.88;;;0.57;;
9789;SDS011;4934;50.852;8.098;2023-05-10T01:14:01;0.70;;;0.60;;
9789;SDS011;4934;50.852;8.098;2023-05-10T01:16:28;1.02;;;0.60;;
9789;SDS011;4934;50.852;8.098;2023-05-10T01:18:59;0.88;;;0.77;;
9789;SDS011;4934;50.852;8.098;2023-05-10T01:21:43;0.80;;;0.70;;
9789;SDS011;4934;50.852;8.098;2023-05-10T01:24:40;0.75;;;0.47;;
9789;SDS011;4934;50.852;8.098;2023-05-10T01:33:24;0.47;;;0.40;;
9789;SDS011;4934;50.852;8.098;2023-05-10T01:35:52;1.33;;;0.70;;
9789;SDS011;4934;50.852;8.098;2023-05-10T01:46:28;1.75;;;0.60;;
9789;SDS011;4934;50.852;8.098;2023-05-10T01:49:08;0.57;;;0.57;;
9789;SDS011;4934;50.852;8.098;2023-05-10T01:51:36;0.80;;;0.70;;
9789;SDS011;4934;50.852;8.098;2023-05-10T01:54:06;2.90;;;1.80;;
9789;SDS011;4934;50.852;8.098;2023-05-10T01:56:34;0.90;;;0.80;;
9789;SDS011;4934;50.852;8.098;2023-05-10T01:59:04;2.13;;;0.80;;
9789;SDS011;4934;50.852;8.098;2023-05-10T02:01:37;1.20;;;1.08;;
9789;SDS011;4934;50.852;8.098;2023-05-10T02:04:03;0.88;;;0.85;;
9789;SDS011;4934;50.852;8.098;2023-05-10T02:06:31;1.17;;;1.00;;
9789;SDS011;4934;50.852;8.098;2023-05-10T02:08:59;0.90;;;0.70;;
9789;SDS011;4934;50.852;8.098;2023-05-10T02:11:26;1.15;;;0.82;;
9789;SDS011;4934;50.852;8.098;2023-05-10T02:13:54;1.40;;;0.88;;
9789;SDS011;4934;50.852;8.098;2023-05-10T02:16:21;1.45;;;0.95;;
9789;SDS011;4934;50.852;8.098;2023-05-10T02:18:49;2.53;;;1.10;;
9789;SDS011;4934;50.852;8.098;2023-05-10T02:21:17;2.05;;;1.33;;
9789;SDS011;4934;50.852;8.098;2023-05-10T02:23:44;1.30;;;1.10;;
9789;SDS011;4934;50.852;8.098;2023-05-10T02:26:11;1.15;;;1.00;;
9789;SDS011;4934;50.852;8.098;2023-05-10T02:28:38;1.80;;;1.38;;
9789;SDS011;4934;50.852;8.098;2023-05-10T02:31:07;2.33;;;1.20;;
9789;SDS011;4934;50.852;8.098;2023-05-10T02:33:35;2.25;;;1.38;;
9789;SDS011;4934;50.852;8.098;2023-05-10T02:36:05;2.92;;;1.65;;
9789;SDS011;4934;50.852;8.098;2023-05-10T02:38:32;1.80;;;1.58;;
9789;SDS011;4934;50.852;8.098;2023-05-10T02:41:00;2.25;;;1.90;;
9789;SDS011;4934;50.852;8.098;2023-05-10T02:43:27;2.35;;;1.70;;
9789;SDS011;4934;50.852;8.098;2023-05-10T02:45:55;3.57;;;2.03;;
9789;SDS011;4934;50.852;8.098;2023-05-10T02:48:20;4.15;;;1.90;;
9789;SDS011;4934;50.852;8.098;2023-05-10T02:50:46;2.95;;;1.75;;
9789;SDS011;4934;50.852;8.098;2023-05-10T02:53:18;4.60;;;1.88;;
9789;SDS011;4934;50.852;8.098;2023-05-10T02:55:49;6.30;;;1.75;;
9789;SDS011;4934;50.852;8.098;2023-05-10T02:58:17;2.35;;;1.92;;
9789;SDS011;4934;50.852;8.098;2023-05-10T03:00:44;2.38;;;2.10;;
9789;SDS011;4934;50.852;8.098;2023-05-10T03:03:11;4.10;;;2.42;;
9789;SDS011;4934;50.852;8.098;2023-05-10T03:05:36;4.07;;;2.67;;
9789;SDS011;4934;50.852;8.098;2023-05-10T03:08:02;3.75;;;2.20;;
9789;SDS011;4934;50.852;8.098;2023-05-10T03:10:29;4.40;;;2.15;;
9789;SDS011;4934;50.852;8.098;2023-05-10T03:13:41;6.20;;;2.35;;
9789;SDS011;4934;50.852;8.098;2023-05-10T03:15:59;3.97;;;2.55;;
9789;SDS011;4934;50.852;8.098;2023-05-10T03:21:10;3.88;;;2.42;;
9789;SDS011;4934;50.852;8.098;2023-05-10T03:23:43;3.10;;;2.40;;
9789;SDS011;4934;50.852;8.098;2023-05-10T03:26:20;4.18;;;2.53;;
9789;SDS011;4934;50.852;8.098;2023-05-10T03:28:50;4.57;;;2.47;;
9789;SDS011;4934;50.852;8.098;2023-05-10T03:31:18;4.78;;;3.17;;
9789;SDS011;4934;50.852;8.098;2023-05-10T03:33:47;6.32;;;3.38;;
9789;SDS011;4934;50.852;8.098;2023-05-10T03:36:13;6.38;;;3.70;;
9789;SDS011;4934;50.852;8.098;2023-05-10T03:38:39;8.02;;;4.38;;
9789;SDS011;4934;50.852;8.098;2023-05-10T03:41:05;8.55;;;4.55;;
9789;SDS011;4934;50.852;8.098;2023-05-10T03:43:30;6.32;;;4.15;;
9789;SDS011;4934;50.852;8.098;2023-05-10T03:45:56;11.32;;;4.40;;
9789;SDS011;4934;50.852;8.098;2023-05-10T03:48:21;7.43;;;4.50;;
9789;SDS011;4934;50.852;8.098;2023-05-10T03:50:47;19.63;;;5.78;;
9789;SDS011;4934;50.852;8.098;2023-05-10T03:53:14;40.90;;;6.43;;
9789;SDS011;4934;50.852;8.098;2023-05-10T03:55:40;9.85;;;5.93;;
9789;SDS011;4934;50.852;8.098;2023-05-10T03:58:05;11.07;;;6.70;;
9789;SDS011;4934;50.852;8.098;2023-05-10T04:00:31;14.52;;;7.40;;
9789;SDS011;4934;50.852;8.098;2023-05-10T04:02:57;13.43;;;7.13;;
9789;SDS011;4934;50.852;8.098;2023-05-10T04:05:23;13.38;;;6.53;;
9789;SDS011;4934;50.852;8.098;2023-05-10T04:07:49;13.73;;;7.15;;
9789;SDS011;4934;50.852;8.098;2023-05-10T04:10:15;12.05;;;7.00;;
9789;SDS011;4934;50.852;8.098;2023-05-10T04:12:41;10.85;;;6.88;;
9789;SDS011;4934;50.852;8.098;2023-05-10T04:15:07;11.43;;;7.07;;
9789;SDS011;4934;50.852;8.098;2023-05-10T04:17:33;10.15;;;6.40;;
9789;SDS011;4934;50.852;8.098;2023-05-10T04:19:58;10.48;;;5.97;;
9789;SDS011;4934;50.852;8.098;2023-05-10T04:22:24;12.18;;;6.95;;
9789;SDS011;4934;50.852;8.098;2023-05-10T04:24:49;8.20;;;4.90;;
9789;SDS011;4934;50.852;8.098;2023-05-10T04:27:15;7.45;;;4.43;;
9789;SDS011;4934;50.852;8.098;2023-05-10T04:29:41;8.15;;;3.75;;
9789;SDS011;4934;50.852;8.098;2023-05-10T04:32:06;5.22;;;3.10;;
9789;SDS011;4934;50.852;8.098;2023-05-10T04:34:32;4.68;;;2.67;;
9789;SDS011;4934;50.852;8.098;2023-05-10T04:36:59;2.75;;;1.92;;
9789;SDS011;4934;50.852;8.098;2023-05-10T04:39:24;2.67;;;1.60;;
9789;SDS011;4934;50.852;8.098;2023-05-10T04:41:50;3.33;;;2.20;;
9789;SDS011;4934;50.852;8.098;2023-05-10T04:44:15;3.10;;;1.95;;
9789;SDS011;4934;50.852;8.098;2023-05-10T04:46:41;2.63;;;1.83;;
9789;SDS011;4934;50.852;8.098;2023-05-10T04:49:06;5.15;;;2.20;;
9789;SDS011;4934;50.852;8.098;2023-05-10T04:51:32;6.65;;;2.85;;
9789;SDS011;4934;50.852;8.098;2023-05-10T04:53:58;8.57;;;2.90;;
9789;SDS011;4934;50.852;8.098;2023-05-10T04:56:23;4.57;;;2.53;;
9789;SDS011;4934;50.852;8.098;2023-05-10T04:58:49;5.95;;;2.88;;
9789;SDS011;4934;50.852;8.098;2023-05-10T05:01:15;4.78;;;3.03;;
9789;SDS011;4934;50.852;8.098;2023-05-10T05:03:40;4.32;;;3.03;;
9789;SDS011;4934;50.852;8.098;2023-05-10T05:06:06;7.63;;;3.70;;
9789;SDS011;4934;50.852;8.098;2023-05-10T05:08:32;4.90;;;2.40;;
9789;SDS011;4934;50.852;8.098;2023-05-10T05:10:57;3.88;;;2.80;;
9789;SDS011;4934;50.852;8.098;2023-05-10T05:13:24;8.20;;;3.03;;
9789;SDS011;4934;50.852;8.098;2023-05-10T05:15:49;3.67;;;2.38;;
9789;SDS011;4934;50.852;8.098;2023-05-10T05:18:15;3.50;;;2.35;;
9789;SDS011;4934;50.852;8.098;2023-05-10T05:20:41;3.67;;;1.75;;
9789;SDS011;4934;50.852;8.098;2023-05-10T05:23:06;2.97;;;1.90;;
9789;SDS011;4934;50.852;8.098;2023-05-10T05:25:32;4.57;;;2.20;;
9789;SDS011;4934;50.852;8.098;2023-05-10T05:27:57;4.40;;;2.20;;
9789;SDS011;4934;50.852;8.098;2023-05-10T05:30:23;3.72;;;2.25;;
9789;SDS011;4934;50.852;8.098;2023-05-10T05:32:48;3.92;;;2.10;;
9789;SDS011;4934;50.852;8.098;2023-05-10T05:35:14;3.75;;;1.95;;
9789;SDS011;4934;50.852;8.098;2023-05-10T05:37:39;3.95;;;2.38;;
9789;SDS011;4934;50.852;8.098;2023-05-10T05:40:05;3.78;;;2.28;;
9789;SDS011;4934;50.852;8.098;2023-05-10T05:42:31;3.78;;;1.98;;
9789;SDS011;4934;50.852;8.098;2023-05-10T05:44:57;4.32;;;2.03;;
9789;SDS011;4934;50.852;8.098;2023-05-10T05:47:23;5.75;;;2.47;;
9789;SDS011;4934;50.852;8.098;2023-05-10T05:49:48;3.83;;;2.40;;
9789;SDS011;4934;50.852;8.098;2023-05-10T05:52:14;4.85;;;2.78;;
9789;SDS011;4934;50.852;8.098;2023-05-10T05:54:39;4.07;;;3.00;;
9789;SDS011;4934;50.852;8.098;2023-05-10T05:57:05;6.03;;;2.30;;
9789;SDS011;4934;50.852;8.098;2023-05-10T05:59:30;4.45;;;2.42;;
9789;SDS011;4934;50.852;8.098;2023-05-10T06:01:56;6.85;;;3.03;;
9789;SDS011;4934;50.852;8.098;2023-05-10T06:04:22;5.93;;;2.92;;
9789;SDS011;4934;50.852;8.098;2023-05-10T06:06:47;6.10;;;2.95;;
9789;SDS011;4934;50.852;8.098;2023-05-10T06:09:13;8.70;;;4.15;;
9789;SDS011;4934;50.852;8.098;2023-05-10T06:11:38;5.50;;;3.17;;
9789;SDS011;4934;50.852;8.098;2023-05-10T06:14:04;9.23;;;4.13;;
9789;SDS011;4934;50.852;8.098;2023-05-10T06:16:32;5.82;;;3.28;;
9789;SDS011;4934;50.852;8.098;2023-05-10T06:18:57;6.65;;;3.50;;
9789;SDS011;4934;50.852;8.098;2023-05-10T06:21:23;5.80;;;3.60;;
9789;SDS011;4934;50.852;8.098;2023-05-10T06:23:48;9.75;;;3.70;;
9789;SDS011;4934;50.852;8.098;2023-05-10T06:26:14;7.82;;;3.78;;
9789;SDS011;4934;50.852;8.098;2023-05-10T06:28:40;8.23;;;3.85;;
9789;SDS011;4934;50.852;8.098;2023-05-10T06:31:06;7.97;;;3.53;;
9789;SDS011;4934;50.852;8.098;2023-05-10T06:33:32;8.55;;;4.50;;
9789;SDS011;4934;50.852;8.098;2023-05-10T06:35:58;7.22;;;4.03;;
9789;SDS011;4934;50.852;8.098;2023-05-10T06:38:23;6.38;;;3.63;;
9789;SDS011;4934;50.852;8.098;2023-05-10T06:40:49;7.25;;;3.55;;
9789;SDS011;4934;50.852;8.098;2023-05-10T06:43:14;8.73;;;3.65;;
9789;SDS011;4934;50.852;8.098;2023-05-10T06:45:40;9.10;;;3.88;;
9789;SDS011;4934;50.852;8.098;2023-05-10T06:48:06;5.97;;;3.55;;
9789;SDS011;4934;50.852;8.098;2023-05-10T06:50:32;9.48;;;4.15;;
9789;SDS011;4934;50.852;8.098;2023-05-10T06:52:58;7.50;;;4.20;;
9789;SDS011;4934;50.852;8.098;2023-05-10T06:55:24;8.82;;;4.57;;
9789;SDS011;4934;50.852;8.098;2023-05-10T06:57:50;6.82;;;3.70;;
9789;SDS011;4934;50.852;8.098;2023-05-10T07:00:16;6.20;;;3.72;;
9789;SDS011;4934;50.852;8.098;2023-05-10T07:02:42;8.02;;;3.90;;
9789;SDS011;4934;50.852;8.098;2023-05-10T07:05:08;10.57;;;4.25;;
9789;SDS011;4934;50.852;8.098;2023-05-10T07:07:34;9.70;;;4.47;;
9789;SDS011;4934;50.852;8.098;2023-05-10T07:10:00;10.48;;;4.38;;
9789;SDS011;4934;50.852;8.098;2023-05-10T07:12:25;8.93;;;3.95;;
9789;SDS011;4934;50.852;8.098;2023-05-10T07:14:51;11.38;;;4.80;;
9789;SDS011;4934;50.852;8.098;2023-05-10T07:17:17;7.60;;;4.05;;
9789;SDS011;4934;50.852;8.098;2023-05-10T07:19:42;9.15;;;4.63;;
9789;SDS011;4934;50.852;8.098;2023-05-10T07:22:08;11.10;;;4.25;;
9789;SDS011;4934;50.852;8.098;2023-05-10T07:24:34;7.88;;;4.50;;
9789;SDS011;4934;50.852;8.098;2023-05-10T07:26:59;10.32;;;4.15;;
9789;SDS011;4934;50.852;8.098;2023-05-10T07:29:25;9.80;;;3.88;;
9789;SDS011;4934;50.852;8.098;2023-05-10T07:31:51;7.18;;;3.92;;
9789;SDS011;4934;50.852;8.098;2023-05-10T07:34:16;9.25;;;4.90;;
9789;SDS011;4934;50.852;8.098;2023-05-10T07:36:42;8.10;;;4.30;;
9789;SDS011;4934;50.852;8.098;2023-05-10T07:39:07;10.65;;;4.78;;
9789;SDS011;4934;50.852;8.098;2023-05-10T07:41:33;9.63;;;5.03;;
9789;SDS011;4934;50.852;8.098;2023-05-10T07:43:58;10.45;;;4.22;;
9789;SDS011;4934;50.852;8.098;2023-05-10T07:46:24;11.30;;;5.13;;
9789;SDS011;4934;50.852;8.098;2023-05-10T07:48:50;9.57;;;4.90;;
9789;SDS011;4934;50.852;8.098;2023-05-10T07:51:15;8.55;;;5.03;;
9789;SDS011;4934;50.852;8.098;2023-05-10T07:53:41;11.70;;;5.32;;
9789;SDS011;4934;50.852;8.098;2023-05-10T07:56:20;9.85;;;4.65;;
9789;SDS011;4934;50.852;8.098;2023-05-10T07:58:55;9.95;;;3.88;;
9789;SDS011;4934;50.852;8.098;2023-05-10T08:01:21;8.13;;;4.25;;
9789;SDS011;4934;50.852;8.098;2023-05-10T08:03:47;11.85;;;5.50;;
9789;SDS011;4934;50.852;8.098;2023-05-10T08:06:14;13.00;;;6.70;;
9789;SDS011;4934;50.852;8.098;2023-05-10T08:08:40;16.00;;;8.65;;
9789;SDS011;4934;50.852;8.098;2023-05-10T08:11:06;17.70;;;10.05;;
9789;SDS011;4934;50.852;8.098;2023-05-10T08:13:31;22.55;;;10.60;;
9789;SDS011;4934;50.852;8.098;2023-05-10T08:15:57;19.42;;;10.75;;
9789;SDS011;4934;50.852;8.098;2023-05-10T08:18:22;26.60;;;12.20;;
9789;SDS011;4934;50.852;8.098;2023-05-10T08:20:48;26.48;;;13.00;;
9789;SDS011;4934;50.852;8.098;2023-05-10T08:23:14;27.45;;;12.55;;
9789;SDS011;4934;50.852;8.098;2023-05-10T08:25:39;28.23;;;13.70;;
9789;SDS011;4934;50.852;8.098;2023-05-10T08:28:05;29.73;;;13.93;;
9789;SDS011;4934;50.852;8.098;2023-05-10T08:30:31;32.80;;;14.90;;
9789;SDS011;4934;50.852;8.098;2023-05-10T08:32:56;30.13;;;13.70;;
9789;SDS011;4934;50.852;8.098;2023-05-10T08:35:22;36.78;;;14.70;;
9789;SDS011;4934;50.852;8.098;2023-05-10T08:37:47;30.38;;;14.70;;
9789;SDS011;4934;50.852;8.098;2023-05-10T08:40:13;30.83;;;14.85;;
9789;SDS011;4934;50.852;8.098;2023-05-10T08:42:41;27.50;;;13.50;;
9789;SDS011;4934;50.852;8.098;2023-05-10T08:45:13;32.00;;;13.68;;
9789;SDS011;4934;50.852;8.098;2023-05-10T08:47:41;32.05;;;13.63;;
9789;SDS011;4934;50.852;8.098;2023-05-10T08:50:07;27.58;;;13.45;;
9789;SDS011;4934;50.852;8.098;2023-05-10T08:52:33;28.95;;;14.85;;
9789;SDS011;4934;50.852;8.098;2023-05-10T08:55:05;27.00;;;12.95;;
9789;SDS011;4934;50.852;8.098;2023-05-10T08:57:31;24.10;;;13.20;;
9789;SDS011;4934;50.852;8.098;2023-05-10T08:59:57;24.33;;;12.77;;
9789;SDS011;4934;50.852;8.098;2023-05-10T09:02:24;23.48;;;12.80;;
9789;SDS011;4934;50.852;8.098;2023-05-10T09:04:50;27.02;;;11.93;;
9789;SDS011;4934;50.852;8.098;2023-05-10T09:07:16;24.85;;;12.25;;
9789;SDS011;4934;50.852;8.098;2023-05-10T09:09:42;26.60;;;12.18;;
9789;SDS011;4934;50.852;8.098;2023-05-10T09:12:08;27.98;;;13.68;;
9789;SDS011;4934;50.852;8.098;2023-05-10T09:14:36;26.35;;;12.40;;
9789;SDS011;4934;50.852;8.098;2023-05-10T09:17:03;22.70;;;11.73;;
9789;SDS011;4934;50.852;8.098;2023-05-10T09:19:29;25.33;;;12.70;;
9789;SDS011;4934;50.852;8.098;2023-05-10T09:21:55;25.38;;;11.50;;
9789;SDS011;4934;50.852;8.098;2023-05-10T09:24:24;20.98;;;11.88;;
9789;SDS011;4934;50.852;8.098;2023-05-10T09:26:51;23.77;;;12.43;;
9789;SDS011;4934;50.852;8.098;2023-05-10T09:29:17;23.52;;;11.55;;
9789;SDS011;4934;50.852;8.098;2023-05-10T09:31:43;22.25;;;11.32;;
9789;SDS011;4934;50.852;8.098;2023-05-10T09:34:19;21.02;;;11.02;;
9789;SDS011;4934;50.852;8.098;2023-05-10T09:36:57;20.95;;;10.25;;
9789;SDS011;4934;50.852;8.098;2023-05-10T09:39:38;23.60;;;11.82;;
9789;SDS011;4934;50.852;8.098;2023-05-10T09:42:04;22.42;;;11.43;;
9789;SDS011;4934;50.852;8.098;2023-05-10T09:44:33;19.52;;;10.35;;
9789;SDS011;4934;50.852;8.098;2023-05-10T09:47:00;29.33;;;11.90;;
9789;SDS011;4934;50.852;8.098;2023-05-10T09:49:26;21.00;;;11.80;;
9789;SDS011;4934;50.852;8.098;2023-05-10T09:52:03;23.58;;;12.00;;
9789;SDS011;4934;50.852;8.098;2023-05-10T09:54:29;24.80;;;12.38;;
9789;SDS011;4934;50.852;8.098;2023-05-10T09:56:56;27.73;;;13.05;;
9789;SDS011;4934;50.852;8.098;2023-05-10T09:59:22;28.25;;;13.45;;
9789;SDS011;4934;50.852;8.098;2023-05-10T10:01:51;24.63;;;12.95;;
9789;SDS011;4934;50.852;8.098;2023-05-10T10:04:18;23.73;;;11.32;;
9789;SDS011;4934;50.852;8.098;2023-05-10T10:06:46;21.65;;;11.38;;
9789;SDS011;4934;50.852;8.098;2023-05-10T10:09:22;21.63;;;11.70;;
9789;SDS011;4934;50.852;8.098;2023-05-10T10:11:48;21.45;;;11.65;;
9789;SDS011;4934;50.852;8.098;2023-05-10T10:14:14;25.55;;;12.73;;
9789;SDS011;4934;50.852;8.098;2023-05-10T10:16:41;21.80;;;11.80;;
9789;SDS011;4934;50.852;8.098;2023-05-10T10:19:06;17.83;;;10.70;;
9789;SDS011;4934;50.852;8.098;2023-05-10T10:21:32;18.35;;;10.50;;
9789;SDS011;4934;50.852;8.098;2023-05-10T10:23:58;19.05;;;9.88;;
9789;SDS011;4934;50.852;8.098;2023-05-10T10:26:24;15.57;;;9.55;;
9789;SDS011;4934;50.852;8.098;2023-05-10T10:31:36;17.35;;;9.50;;
9789;SDS011;4934;50.852;8.098;2023-05-10T10:36:50;14.30;;;7.57;;
9789;SDS011;4934;50.852;8.098;2023-05-10T10:39:16;15.77;;;8.20;;
9789;SDS011;4934;50.852;8.098;2023-05-10T10:41:54;14.90;;;7.53;;
9789;SDS011;4934;50.852;8.098;2023-05-10T10:44:25;12.35;;;6.63;;
9789;SDS011;4934;50.852;8.098;2023-05-10T10:49:33;14.20;;;7.75;;
9789;SDS011;4934;50.852;8.098;2023-05-10T10:52:22;9.93;;;5.57;;
9789;SDS011;4934;50.852;8.098;2023-05-10T10:55:30;9.82;;;5.70;;
9789;SDS011;4934;50.852;8.098;2023-05-10T10:57:45;8.18;;;4.95;;
9789;SDS011;4934;50.852;8.098;2023-05-10T11:08:15;11.20;;;4.20;;
9789;SDS011;4934;50.852;8.098;2023-05-10T11:16:13;6.32;;;3.92;;
9789;SDS011;4934;50.852;8.098;2023-05-10T11:19:01;8.68;;;4.38;;
9789;SDS011;4934;50.852;8.098;2023-05-10T11:21:31;6.55;;;3.40;;
9789;SDS011;4934;50.852;8.098;2023-05-10T11:23:59;5.10;;;2.92;;
9789;SDS011;4934;50.852;8.098;2023-05-10T11:26:32;5.88;;;2.67;;
9789;SDS011;4934;50.852;8.098;2023-05-10T11:28:59;3.50;;;2.58;;
9789;SDS011;4934;50.852;8.098;2023-05-10T11:31:26;3.83;;;2.70;;
9789;SDS011;4934;50.852;8.098;2023-05-10T11:33:54;4.43;;;2.30;;
9789;SDS011;4934;50.852;8.098;2023-05-10T11:36:23;4.30;;;1.90;;
9789;SDS011;4934;50.852;8.098;2023-05-10T11:38:50;5.47;;;2.17;;
9789;SDS011;4934;50.852;8.098;2023-05-10T11:41:17;1.42;;;1.10;;
9789;SDS011;4934;50.852;8.098;2023-05-10T11:43:45;2.60;;;1.15;;
9789;SDS011;4934;50.852;8.098;2023-05-10T11:46:13;5.22;;;1.42;;
9789;SDS011;4934;50.852;8.098;2023-05-10T11:48:40;4.38;;;2.25;;
9789;SDS011;4934;50.852;8.098;2023-05-10T11:51:07;7.13;;;2.65;;
9789;SDS011;4934;50.852;8.098;2023-05-10T11:53:33;3.63;;;1.42;;
9789;SDS011;4934;50.852;8.098;2023-05-10T11:56:05;1.85;;;1.30;;
9789;SDS011;4934;50.852;8.098;2023-05-10T11:58:33;2.13;;;1.23;;
9789;SDS011;4934;50.852;8.098;2023-05-10T12:00:59;3.03;;;1.52;;
9789;SDS011;4934;50.852;8.098;2023-05-10T12:03:26;2.60;;;1.17;;
9789;SDS011;4934;50.852;8.098;2023-05-10T12:05:52;1.52;;;1.10;;
9789;SDS011;4934;50.852;8.098;2023-05-10T12:08:20;2.78;;;1.95;;
9789;SDS011;4934;50.852;8.098;2023-05-10T12:10:47;3.78;;;1.30;;
9789;SDS011;4934;50.852;8.098;2023-05-10T12:13:13;2.53;;;1.55;;
9789;SDS011;4934;50.852;8.098;2023-05-10T12:15:39;3.75;;;1.05;;
9789;SDS011;4934;50.852;8.098;2023-05-10T12:18:05;2.63;;;1.58;;
9789;SDS011;4934;50.852;8.098;2023-05-10T12:20:33;2.05;;;1.52;;
9789;SDS011;4934;50.852;8.098;2023-05-10T12:22:58;1.10;;;0.98;;
9789;SDS011;4934;50.852;8.098;2023-05-10T12:25:30;2.17;;;1.35;;
9789;SDS011;4934;50.852;8.098;2023-05-10T12:28:00;2.20;;;1.10;;
9789;SDS011;4934;50.852;8.098;2023-05-10T12:33:17;4.45;;;1.60;;
9789;SDS011;4934;50.852;8.098;2023-05-10T12:35:49;2.58;;;1.38;;
9789;SDS011;4934;50.852;8.098;2023-05-10T12:38:26;2.20;;;1.52;;
9789;SDS011;4934;50.852;8.098;2023-05-10T12:40:53;3.70;;;1.88;;
9789;SDS011;4934;50.852;8.098;2023-05-10T12:43:19;3.47;;;1.98;;
9789;SDS011;4934;50.852;8.098;2023-05-10T12:45:45;3.28;;;2.10;;
9789;SDS011;4934;50.852;8.098;2023-05-10T12:48:13;2.73;;;1.93;;
9789;SDS011;4934;50.852;8.098;2023-05-10T12:50:38;4.32;;;1.60;;
9789;SDS011;4934;50.852;8.098;2023-05-10T12:53:04;4.45;;;1.92;;
9789;SDS011;4934;50.852;8.098;2023-05-10T12:55:29;4.22;;;2.15;;
9789;SDS011;4934;50.852;8.098;2023-05-10T12:57:56;4.07;;;2.25;;
9789;SDS011;4934;50.852;8.098;2023-05-10T13:00:21;3.10;;;1.88;;
9789;SDS011;4934;50.852;8.098;2023-05-10T13:02:47;5.78;;;2.97;;
9789;SDS011;4934;50.852;8.098;2023-05-10T13:05:13;4.20;;;2.45;;
9789;SDS011;4934;50.852;8.098;2023-05-10T13:07:38;5.43;;;2.50;;
9789;SDS011;4934;50.852;8.098;2023-05-10T13:10:05;4.05;;;1.73;;
9789;SDS011;4934;50.852;8.098;2023-05-10T13:12:31;2.40;;;1.90;;
9789;SDS011;4934;50.852;8.098;2023-05-10T13:14:57;3.58;;;1.90;;
9789;SDS011;4934;50.852;8.098;2023-05-10T13:17:22;3.60;;;2.30;;
9789;SDS011;4934;50.852;8.098;2023-05-10T13:19:50;3.08;;;2.30;;
9789;SDS011;4934;50.852;8.098;2023-05-10T13:22:15;3.20;;;2.08;;
9789;SDS011;4934;50.852;8.098;2023-05-10T13:24:41;4.65;;;2.67;;
9789;SDS011;4934;50.852;8.098;2023-05-10T13:27:06;4.45;;;2.42;;
9789;SDS011;4934;50.852;8.098;2023-05-10T13:29:32;4.85;;;1.77;;
9789;SDS011;4934;50.852;8.098;2023-05-10T13:31:58;4.18;;;2.67;;
9789;SDS011;4934;50.852;8.098;2023-05-10T13:34:23;11.68;;;4.38;;
9789;SDS011;4934;50.852;8.098;2023-05-10T13:36:49;4.90;;;2.47;;
9789;SDS011;4934;50.852;8.098;2023-05-10T13:39:15;4.78;;;3.03;;
9789;SDS011;4934;50.852;8.098;2023-05-10T13:41:41;5.15;;;2.95;;
9789;SDS011;4934;50.852;8.098;2023-05-10T13:44:07;6.28;;;2.70;;
9789;SDS011;4934;50.852;8.098;2023-05-10T13:46:32;6.63;;;2.80;;
9789;SDS011;4934;50.852;8.098;2023-05-10T13:48:58;4.15;;;2.38;;
9789;SDS011;4934;50.852;8.098;2023-05-10T13:51:23;3.85;;;2.60;;
9789;SDS011;4934;50.852;8.098;2023-05-10T13:53:49;4.13;;;2.60;;
9789;SDS011;4934;50.852;8.098;2023-05-10T13:56:15;5.63;;;2.95;;
9789;SDS011;4934;50.852;8.098;2023-05-10T13:58:40;6.03;;;3.10;;
9789;SDS011;4934;50.852;8.098;2023-05-10T14:01:06;4.95;;;3.15;;
9789;SDS011;4934;50.852;8.098;2023-05-10T14:03:31;6.53;;;3.42;;
9789;SDS011;4934;50.852;8.098;2023-05-10T14:05:57;5.82;;;3.72;;
9789;SDS011;4934;50.852;8.098;2023-05-10T14:08:23;5.35;;;3.15;;
9789;SDS011;4934;50.852;8.098;2023-05-10T14:10:49;7.55;;;3.85;;
9789;SDS011;4934;50.852;8.098;2023-05-10T14:13:15;7.80;;;3.55;;
9789;SDS011;4934;50.852;8.098;2023-05-10T14:15:41;8.35;;;3.65;;
9789;SDS011;4934;50.852;8.098;2023-05-10T14:18:06;5.85;;;3.88;;
9789;SDS011;4934;50.852;8.098;2023-05-10T14:20:32;8.43;;;4.40;;
9789;SDS011;4934;50.852;8.098;2023-05-10T14:22:59;7.75;;;4.38;;
9789;SDS011;4934;50.852;8.098;2023-05-10T14:25:25;6.13;;;3.70;;
9789;SDS011;4934;50.852;8.098;2023-05-10T14:27:50;12.32;;;3.97;;
9789;SDS011;4934;50.852;8.098;2023-05-10T14:30:19;10.48;;;5.28;;
9789;SDS011;4934;50.852;8.098;2023-05-10T14:32:44;10.38;;;5.00;;
9789;SDS011;4934;50.852;8.098;2023-05-10T14:35:10;13.32;;;5.70;;
9789;SDS011;4934;50.852;8.098;2023-05-10T14:37:36;10.88;;;5.25;;
9789;SDS011;4934;50.852;8.098;2023-05-10T14:40:02;10.93;;;5.65;;
9789;SDS011;4934;50.852;8.098;2023-05-10T14:42:29;7.63;;;4.63;;
9789;SDS011;4934;50.852;8.098;2023-05-10T14:44:54;16.13;;;5.05;;
9789;SDS011;4934;50.852;8.098;2023-05-10T14:47:20;9.35;;;5.05;;
9789;SDS011;4934;50.852;8.098;2023-05-10T14:49:45;8.68;;;5.10;;
9789;SDS011;4934;50.852;8.098;2023-05-10T14:52:11;10.70;;;5.20;;
9789;SDS011;4934;50.852;8.098;2023-05-10T14:54:37;9.02;;;5.20;;
9789;SDS011;4934;50.852;8.098;2023-05-10T14:57:03;8.65;;;5.15;;
9789;SDS011;4934;50.852;8.098;2023-05-10T14:59:29;11.00;;;5.40;;
9789;SDS011;4934;50.852;8.098;2023-05-10T15:01:54;10.52;;;4.95;;
9789;SDS011;4934;50.852;8.098;2023-05-10T15:04:20;7.30;;;5.00;;
9789;SDS011;4934;50.852;8.098;2023-05-10T15:06:46;9.02;;;5.47;;
9789;SDS011;4934;50.852;8.098;2023-05-10T15:09:11;11.73;;;4.95;;
9789;SDS011;4934;50.852;8.098;2023-05-10T15:11:37;10.38;;;4.90;;
9789;SDS011;4934;50.852;8.098;2023-05-10T15:14:02;7.07;;;4.38;;
9789;SDS011;4934;50.852;8.098;2023-05-10T15:16:28;12.43;;;5.63;;
9789;SDS011;4934;50.852;8.098;2023-05-10T15:18:54;8.13;;;4.63;;
9789;SDS011;4934;50.852;8.098;2023-05-10T15:21:19;10.40;;;4.35;;
9789;SDS011;4934;50.852;8.098;2023-05-10T15:23:45;10.27;;;4.35;;
9789;SDS011;4934;50.852;8.098;2023-05-10T15:26:11;10.45;;;4.85;;
9789;SDS011;4934;50.852;8.098;2023-05-10T15:28:36;12.00;;;5.10;;
9789;SDS011;4934;50.852;8.098;2023-05-10T15:31:02;9.45;;;5.03;;
9789;SDS011;4934;50.852;8.098;2023-05-10T15:33:28;9.05;;;4.40;;
9789;SDS011;4934;50.852;8.098;2023-05-10T15:35:53;9.65;;;4.93;;
9789;SDS011;4934;50.852;8.098;2023-05-10T15:38:19;10.50;;;5.57;;
9789;SDS011;4934;50.852;8.098;2023-05-10T15:40:45;8.07;;;4.70;;
9789;SDS011;4934;50.852;8.098;2023-05-10T15:43:10;7.65;;;4.25;;
9789;SDS011;4934;50.852;8.098;2023-05-10T15:45:36;7.00;;;4.72;;
9789;SDS011;4934;50.852;8.098;2023-05-10T15:48:02;8.70;;;4.65;;
9789;SDS011;4934;50.852;8.098;2023-05-10T15:50:27;7.50;;;4.55;;